Terminal Aerodrome Forecast
Issued by NWS Wakefield, VA

Home | Current Version | Previous Version | Text Only | Print | Product List | Glossary On
Versions: 1 2 3 4 5 6 7 8 9 10 11 12 13 14 15 16 17 18 19 20 21 22 23 24 25 26 27
884
FTUS41 KAKQ 201143 RRA
TAFRIC
TAF
KRIC 201143Z 2012/2112 19003KT 1SM -DZ BR OVC003
      TEMPO 2012/2013 1/2SM FG OVC002
     FM201600 21007KT 4SM BR OVC005
     FM201800 22008KT P6SM BKN010
     FM202000 21008KT P6SM BKN015
     FM202100 21008KT P6SM SCT020
     FM210400 20006KT 4SM BR SCT040
     FM210700 20006KT 2SM BR SCT006=

USA.gov is the U.S. government's official web portal to all federal, state and local government web resources and services.